createdAt,value
2023-03-22T00:00:22.378Z,13.25
2023-03-22T00:02:50.247Z,14.77
2023-03-22T00:05:18.970Z,12.15
2023-03-22T00:07:52.064Z,12.15
2023-03-22T00:10:22.102Z,13.50
2023-03-22T00:12:49.093Z,12.30
2023-03-22T00:15:16.893Z,13.25
2023-03-22T00:17:43.590Z,11.55
2023-03-22T00:20:21.034Z,12.18
2023-03-22T00:22:51.656Z,9.75
2023-03-22T00:25:28.987Z,14.18
2023-03-22T00:28:00.991Z,14.98
2023-03-22T00:30:28.119Z,13.38
2023-03-22T00:32:55.800Z,12.45
2023-03-22T00:35:32.790Z,13.75
2023-03-22T00:38:04.383Z,13.35
2023-03-22T00:40:32.007Z,17.30
2023-03-22T00:43:05.022Z,11.85
2023-03-22T00:45:31.619Z,12.80
2023-03-22T00:47:59.250Z,10.50
2023-03-22T00:50:28.271Z,9.38
2023-03-22T00:52:57.824Z,9.95
2023-03-22T00:57:57.057Z,13.88
2023-03-22T01:00:23.901Z,13.50
2023-03-22T01:02:52.609Z,9.45
2023-03-22T01:05:38.123Z,11.77
2023-03-22T01:08:09.658Z,10.63
2023-03-22T01:10:43.117Z,10.20
2023-03-22T01:13:10.104Z,11.73
2023-03-22T01:15:36.683Z,17.80
2023-03-22T01:20:47.863Z,8.63
2023-03-22T01:23:18.739Z,11.90
2023-03-22T01:25:53.881Z,12.00
2023-03-22T01:28:20.487Z,13.77
2023-03-22T01:30:47.523Z,10.35
2023-03-22T01:33:22.431Z,10.70
2023-03-22T01:35:50.309Z,9.98
2023-03-22T01:38:20.525Z,13.20
2023-03-22T01:40:47.666Z,12.80
2023-03-22T01:43:17.902Z,13.95
2023-03-22T01:48:50.533Z,12.32
2023-03-22T01:51:25.428Z,13.50
2023-03-22T01:53:54.936Z,12.30
2023-03-22T01:56:24.286Z,11.10
2023-03-22T01:58:57.166Z,7.78
2023-03-22T02:01:24.226Z,8.43
2023-03-22T02:03:59.386Z,8.80
2023-03-22T02:06:26.501Z,8.55
2023-03-22T02:08:57.579Z,8.82
2023-03-22T02:11:34.281Z,10.13
2023-03-22T02:14:17.075Z,11.30
2023-03-22T02:16:57.312Z,10.77
2023-03-22T02:19:29.864Z,9.73
2023-03-22T02:22:05.961Z,8.90
2023-03-22T02:24:51.404Z,12.00
2023-03-22T02:27:30.506Z,9.35
2023-03-22T02:30:25.028Z,8.20
2023-03-22T02:32:54.763Z,7.70
2023-03-22T02:35:26.124Z,8.13
2023-03-22T02:38:03.602Z,8.30
2023-03-22T02:40:49.098Z,8.90
2023-03-22T02:43:41.352Z,7.30
2023-03-22T02:46:10.119Z,8.88
2023-03-22T02:48:53.452Z,8.32
2023-03-22T02:51:36.555Z,8.05
2023-03-22T02:54:23.511Z,7.63
2023-03-22T02:56:57.294Z,6.78
2023-03-22T02:59:25.040Z,7.73
2023-03-22T03:01:56.549Z,6.05
2023-03-22T03:04:31.660Z,6.30
2023-03-22T03:07:09.816Z,7.20
2023-03-22T03:09:45.926Z,8.50
2023-03-22T03:12:25.422Z,9.48
2023-03-22T03:14:52.867Z,8.88
2023-03-22T03:17:39.991Z,10.20
2023-03-22T03:20:31.011Z,8.45
2023-03-22T03:23:18.346Z,6.82
2023-03-22T03:25:56.904Z,7.47
2023-03-22T03:28:39.553Z,7.20
2023-03-22T03:31:10.415Z,6.35
2023-03-22T03:33:43.291Z,7.10
2023-03-22T03:36:11.805Z,6.68
2023-03-22T03:38:41.200Z,7.55
2023-03-22T03:41:11.381Z,7.70
2023-03-22T03:43:42.260Z,6.50
2023-03-22T03:48:43.014Z,5.93
2023-03-22T03:51:12.072Z,4.88
2023-03-22T03:53:49.265Z,6.45
2023-03-22T03:56:22.586Z,6.05
2023-03-22T03:58:49.210Z,6.80
2023-03-22T04:01:20.869Z,6.55
2023-03-22T04:03:48.732Z,5.55
2023-03-22T04:06:15.476Z,7.78
2023-03-22T04:08:44.703Z,6.75
2023-03-22T04:11:11.728Z,7.38
2023-03-22T04:13:38.693Z,7.07
2023-03-22T04:16:05.316Z,7.53
2023-03-22T04:18:31.852Z,5.90
2023-03-22T04:21:09.430Z,6.05
2023-03-22T04:23:43.695Z,6.40
2023-03-22T04:26:26.221Z,6.25
2023-03-22T04:28:55.312Z,6.32
2023-03-22T04:34:02.043Z,6.60
2023-03-22T04:36:35.867Z,8.23
2023-03-22T04:50:38.955Z,5.50
2023-03-22T04:53:07.402Z,5.57
2023-03-22T04:58:27.613Z,4.90
2023-03-22T05:00:54.184Z,5.28
2023-03-22T05:03:37.812Z,5.93
2023-03-22T05:06:15.629Z,5.25
2023-03-22T05:08:45.805Z,6.22
2023-03-22T05:11:23.694Z,8.18
2023-03-22T05:13:50.132Z,10.20
2023-03-22T05:16:19.934Z,7.43
2023-03-22T05:18:46.614Z,8.75
2023-03-22T05:21:18.330Z,8.40
2023-03-22T05:23:49.740Z,10.55
2023-03-22T05:26:21.099Z,7.05
2023-03-22T05:28:59.891Z,5.82
2023-03-22T05:31:32.410Z,8.52
2023-03-22T05:34:00.875Z,9.98
2023-03-22T05:36:34.656Z,10.35
2023-03-22T05:39:08.981Z,11.18
2023-03-22T05:41:39.338Z,8.80
2023-03-22T05:44:08.253Z,10.05
2023-03-22T05:46:47.165Z,12.85
2023-03-22T05:49:19.353Z,9.18
2023-03-22T05:51:47.376Z,9.93
2023-03-22T05:54:13.854Z,14.45
2023-03-22T05:56:44.490Z,9.98
2023-03-22T05:59:14.065Z,12.93
2023-03-22T06:04:12.675Z,7.30
2023-03-22T06:06:39.165Z,10.57
2023-03-22T06:09:16.373Z,9.68
2023-03-22T06:11:46.457Z,11.05
2023-03-22T06:14:22.637Z,6.20
2023-03-22T06:16:49.583Z,6.70
2023-03-22T06:21:55.688Z,7.18
2023-03-22T06:24:37.327Z,7.20
2023-03-22T06:27:03.979Z,9.27
2023-03-22T06:29:35.127Z,12.77
2023-03-22T06:32:01.674Z,10.93
2023-03-22T06:34:28.308Z,8.02
2023-03-22T06:36:54.770Z,7.45
2023-03-22T06:39:21.608Z,7.47
2023-03-22T06:41:49.431Z,8.30
2023-03-22T06:44:17.954Z,6.05
2023-03-22T06:46:44.417Z,9.00
2023-03-22T06:49:10.993Z,8.40
2023-03-22T06:51:37.900Z,7.50
2023-03-22T06:54:11.314Z,8.48
2023-03-22T06:56:37.903Z,7.93
2023-03-22T06:59:11.756Z,7.57
2023-03-22T07:01:39.648Z,8.45
2023-03-22T07:04:18.485Z,8.10
2023-03-22T07:06:50.589Z,8.60
2023-03-22T07:09:31.782Z,7.15
2023-03-22T07:12:07.043Z,6.60
2023-03-22T07:14:41.438Z,8.23
2023-03-22T07:17:07.851Z,7.32
2023-03-22T07:19:37.798Z,6.53
2023-03-22T07:22:04.864Z,10.73
2023-03-22T07:24:36.040Z,8.88
2023-03-22T07:27:07.556Z,7.93
2023-03-22T07:29:34.122Z,10.07
2023-03-22T07:32:00.625Z,7.88
2023-03-22T07:34:27.284Z,7.28
2023-03-22T07:36:55.548Z,8.38
2023-03-22T07:39:22.617Z,8.40
2023-03-22T07:41:49.064Z,7.93
2023-03-22T07:44:26.542Z,8.13
2023-03-22T07:46:54.258Z,9.95
2023-03-22T07:49:20.988Z,8.38
2023-03-22T07:51:47.914Z,7.45
2023-03-22T07:54:30.606Z,6.95
2023-03-22T07:57:12.506Z,5.70
2023-03-22T07:59:40.258Z,5.63
2023-03-22T08:04:42.663Z,7.05
2023-03-22T08:07:10.306Z,6.90
2023-03-22T08:09:37.323Z,6.32
2023-03-22T08:12:06.964Z,5.97
2023-03-22T08:14:37.099Z,6.72
2023-03-22T08:19:38.813Z,6.75
2023-03-22T08:22:12.816Z,6.38
2023-03-22T08:24:45.764Z,6.95
2023-03-22T08:27:12.346Z,7.22
2023-03-22T08:29:38.959Z,8.55
2023-03-22T08:32:08.850Z,7.38
2023-03-22T08:34:54.656Z,7.10
2023-03-22T08:37:21.122Z,7.25
2023-03-22T08:39:47.555Z,7.25
2023-03-22T08:42:13.935Z,7.05
2023-03-22T08:44:40.552Z,9.75
2023-03-22T08:47:08.052Z,8.35
2023-03-22T08:49:44.796Z,5.43
2023-03-22T08:52:11.245Z,6.88
2023-03-22T08:54:38.355Z,5.65
2023-03-22T08:57:05.337Z,5.55
2023-03-22T08:59:31.780Z,7.18
2023-03-22T09:01:58.469Z,7.97
2023-03-22T09:04:25.001Z,8.13
2023-03-22T09:06:51.601Z,8.30
2023-03-22T09:09:21.560Z,8.30
2023-03-22T09:11:47.951Z,8.30
2023-03-22T09:14:14.820Z,10.70
2023-03-22T09:16:41.273Z,8.27
2023-03-22T09:19:07.695Z,9.77
2023-03-22T09:21:37.098Z,10.60
2023-03-22T09:26:42.611Z,11.30
2023-03-22T09:29:09.059Z,11.43
2023-03-22T09:31:39.206Z,13.48
2023-03-22T09:34:05.942Z,13.20
2023-03-22T09:36:38.991Z,15.60
2023-03-22T09:39:05.958Z,14.70
2023-03-22T09:41:40.367Z,12.75
2023-03-22T09:44:11.202Z,14.98
2023-03-22T09:46:41.233Z,12.25
2023-03-22T09:49:22.061Z,14.00
2023-03-22T09:51:52.042Z,12.77
2023-03-22T09:54:35.418Z,14.38
2023-03-22T09:57:05.791Z,13.52
2023-03-22T09:59:39.317Z,9.98
2023-03-22T10:02:18.945Z,11.90
2023-03-22T10:04:57.149Z,12.63
2023-03-22T10:07:24.579Z,12.52
2023-03-22T10:09:53.807Z,10.98
2023-03-22T10:14:59.489Z,13.45
2023-03-22T10:17:27.048Z,12.05
2023-03-22T10:22:35.645Z,13.27
2023-03-22T10:25:02.498Z,9.95
2023-03-22T10:27:30.195Z,10.20
2023-03-22T10:30:01.730Z,11.70
2023-03-22T10:32:56.662Z,12.98
2023-03-22T10:35:24.460Z,12.75
2023-03-22T10:37:51.800Z,11.05
2023-03-22T10:40:26.091Z,10.38
2023-03-22T10:43:12.788Z,11.48
2023-03-22T10:45:39.994Z,11.70
2023-03-22T10:48:20.818Z,13.95
2023-03-22T10:50:47.778Z,10.20
2023-03-22T10:53:21.439Z,13.65
2023-03-22T10:55:48.056Z,12.32
2023-03-22T10:58:14.472Z,11.50
2023-03-22T11:00:53.907Z,11.57
2023-03-22T11:06:13.635Z,14.82
2023-03-22T11:08:47.339Z,12.68
2023-03-22T11:11:41.181Z,8.95
2023-03-22T11:14:12.820Z,7.55
2023-03-22T11:16:44.277Z,8.23
2023-03-22T11:19:18.841Z,8.52
2023-03-22T11:21:45.372Z,8.43
2023-03-22T11:24:15.100Z,7.25
2023-03-22T11:26:42.041Z,8.73
2023-03-22T11:29:17.839Z,7.72
2023-03-22T11:31:55.696Z,7.30
2023-03-22T11:34:23.708Z,7.30
2023-03-22T11:36:55.438Z,9.70
2023-03-22T11:39:26.800Z,7.72
2023-03-22T11:41:56.480Z,7.55
2023-03-22T11:44:32.639Z,8.32
2023-03-22T11:47:00.140Z,8.77
2023-03-22T11:49:53.618Z,7.00
2023-03-22T11:52:23.195Z,7.57
2023-03-22T11:54:53.307Z,7.85
2023-03-22T11:57:27.435Z,8.70
2023-03-22T12:00:08.171Z,7.13
2023-03-22T12:02:39.288Z,7.95
2023-03-22T12:05:21.771Z,7.45
2023-03-22T12:07:51.049Z,6.60
2023-03-22T12:10:21.510Z,7.15
2023-03-22T12:13:01.194Z,6.80
2023-03-22T12:15:43.318Z,5.80
2023-03-22T12:18:19.465Z,5.75
2023-03-22T12:20:52.045Z,5.22
2023-03-22T12:23:20.007Z,3.55
2023-03-22T12:26:11.296Z,3.58
2023-03-22T12:28:56.865Z,2.80
2023-03-22T12:31:29.036Z,4.40
2023-03-22T12:33:58.742Z,4.35
2023-03-22T12:36:28.970Z,3.92
2023-03-22T12:42:19.885Z,4.75
2023-03-22T12:45:05.257Z,5.18
2023-03-22T12:50:48.068Z,4.22
2023-03-22T12:56:18.641Z,3.78
2023-03-22T12:58:58.201Z,3.25
2023-03-22T13:02:06.893Z,3.08
2023-03-22T13:04:36.791Z,4.63
2023-03-22T13:07:30.740Z,4.28
2023-03-22T13:09:58.204Z,3.70
2023-03-22T13:12:27.668Z,3.97
2023-03-22T13:14:56.203Z,4.32
2023-03-22T13:17:37.605Z,3.60
2023-03-22T13:20:06.833Z,3.40
2023-03-22T13:22:41.757Z,4.90
2023-03-22T13:25:11.818Z,4.13
2023-03-22T13:28:05.665Z,4.18
2023-03-22T13:30:50.450Z,5.07
2023-03-22T13:33:23.914Z,3.83
2023-03-22T13:36:01.017Z,4.43
2023-03-22T13:38:28.730Z,3.47
2023-03-22T13:41:14.453Z,6.60
2023-03-22T13:43:49.781Z,4.63
2023-03-22T13:46:19.287Z,3.50
2023-03-22T13:48:49.314Z,3.40
2023-03-22T13:51:22.865Z,3.75
2023-03-22T13:53:58.670Z,4.70
2023-03-22T13:56:44.080Z,3.63
2023-03-22T13:59:13.786Z,3.30
2023-03-22T14:01:47.087Z,3.97
2023-03-22T14:04:15.475Z,3.05
2023-03-22T14:07:02.163Z,3.60
2023-03-22T14:09:34.180Z,3.65
2023-03-22T14:12:04.551Z,3.45
2023-03-22T14:14:37.941Z,4.43
2023-03-22T14:17:10.882Z,4.70
2023-03-22T14:19:38.088Z,5.03
2023-03-22T14:52:20.940Z,4.38
2023-03-22T14:54:52.084Z,4.88
2023-03-22T14:57:23.136Z,5.47
2023-03-22T14:59:59.628Z,3.85
2023-03-22T15:02:35.452Z,3.58
2023-03-22T15:07:56.719Z,4.20
2023-03-22T15:10:24.885Z,4.18
2023-03-22T15:12:52.655Z,4.70
2023-03-22T15:15:20.773Z,3.53
2023-03-22T15:17:48.994Z,4.32
2023-03-22T15:20:18.186Z,3.00
2023-03-22T15:22:52.995Z,6.03
2023-03-22T15:25:19.804Z,2.97
2023-03-22T15:27:46.415Z,4.97
2023-03-22T15:30:22.028Z,4.25
2023-03-22T15:32:49.996Z,3.35
2023-03-22T15:35:21.776Z,3.63
2023-03-22T15:37:49.952Z,2.42
2023-03-22T15:40:30.701Z,3.28
2023-03-22T15:43:28.666Z,2.10
2023-03-22T15:46:16.184Z,2.08
2023-03-22T15:48:42.740Z,2.95
2023-03-22T15:51:12.097Z,2.50
2023-03-22T15:53:39.930Z,2.00
2023-03-22T15:56:10.163Z,3.40
2023-03-22T15:58:36.689Z,2.92
2023-03-22T16:01:15.075Z,3.42
2023-03-22T16:03:45.070Z,2.70
2023-03-22T16:06:13.015Z,2.72
2023-03-22T16:08:39.830Z,2.50
2023-03-22T16:11:10.030Z,3.78
2023-03-22T16:13:39.384Z,2.20
2023-03-22T16:16:13.213Z,2.35
2023-03-22T16:21:11.207Z,3.65
2023-03-22T16:23:40.995Z,3.70
2023-03-22T16:26:16.004Z,4.32
2023-03-22T16:28:42.512Z,2.25
2023-03-22T16:31:27.816Z,3.08
2023-03-22T16:34:01.868Z,2.67
2023-03-22T16:36:40.036Z,4.00
2023-03-22T16:39:09.696Z,2.70
2023-03-22T16:41:46.268Z,3.20
2023-03-22T16:44:17.033Z,2.92
2023-03-22T16:46:48.573Z,4.63
2023-03-22T16:49:16.483Z,4.00
2023-03-22T16:56:57.011Z,4.03
2023-03-22T16:59:24.646Z,3.92
2023-03-22T17:01:51.394Z,3.10
2023-03-22T17:04:18.051Z,3.78
2023-03-22T17:06:57.356Z,4.63
2023-03-22T17:09:25.323Z,3.65
2023-03-22T17:11:51.888Z,3.55
2023-03-22T17:14:18.479Z,5.55
2023-03-22T17:16:44.996Z,2.72
2023-03-22T17:19:11.529Z,3.33
2023-03-22T17:24:10.212Z,4.07
2023-03-22T17:26:38.396Z,4.45
2023-03-22T17:29:07.107Z,4.18
2023-03-22T17:31:34.336Z,5.20
2023-03-22T17:34:02.184Z,3.30
2023-03-22T17:36:29.900Z,4.05
2023-03-22T17:41:40.396Z,4.22
2023-03-22T17:44:07.048Z,5.00
2023-03-22T17:47:10.023Z,6.70
2023-03-22T17:49:20.381Z,5.13
2023-03-22T17:51:56.762Z,3.30
2023-03-22T17:54:57.106Z,4.95
2023-03-22T17:59:50.161Z,4.47
2023-03-22T18:02:57.489Z,7.05
2023-03-22T18:05:15.584Z,4.40
2023-03-22T18:07:44.222Z,8.43
2023-03-22T18:10:21.227Z,6.13
2023-03-22T18:12:48.275Z,6.88
2023-03-22T18:15:18.885Z,5.45
2023-03-22T18:17:52.743Z,5.55
2023-03-22T18:20:34.246Z,7.05
2023-03-22T18:23:10.259Z,4.65
2023-03-22T18:25:42.145Z,6.97
2023-03-22T18:28:09.822Z,7.18
2023-03-22T18:30:37.670Z,6.70
2023-03-22T18:33:06.243Z,5.32
2023-03-22T18:35:42.058Z,7.07
2023-03-22T18:38:10.124Z,8.63
2023-03-22T18:41:20.028Z,10.55
2023-03-22T18:43:23.896Z,11.57
2023-03-22T18:45:58.777Z,11.60
2023-03-22T18:48:32.013Z,10.48
2023-03-22T18:51:10.869Z,11.13
2023-03-22T18:53:42.460Z,10.55
2023-03-22T18:58:55.408Z,9.07
2023-03-22T19:01:32.187Z,12.52
2023-03-22T19:04:01.922Z,10.45
2023-03-22T19:09:05.773Z,11.88
2023-03-22T19:11:32.562Z,12.02
2023-03-22T19:14:49.380Z,12.50
2023-03-22T19:16:45.558Z,11.13
2023-03-22T19:19:39.973Z,13.88
2023-03-22T19:22:07.269Z,15.25
2023-03-22T19:24:37.007Z,13.45
2023-03-22T19:27:17.748Z,13.55
2023-03-22T19:29:46.600Z,16.75
2023-03-22T19:32:13.693Z,14.32
2023-03-22T19:34:43.565Z,19.67
2023-03-22T19:37:15.563Z,16.73
2023-03-22T19:40:38.874Z,17.52
2023-03-22T19:42:36.849Z,15.23
2023-03-22T19:45:04.834Z,14.18
2023-03-22T19:47:33.984Z,16.88
2023-03-22T19:50:03.668Z,16.42
2023-03-22T19:55:05.184Z,19.08
2023-03-22T19:57:35.104Z,17.48
2023-03-22T20:02:37.475Z,15.23
2023-03-22T20:05:14.823Z,17.90
2023-03-22T20:07:44.158Z,15.80
2023-03-22T20:10:10.740Z,12.82
2023-03-22T20:12:37.406Z,12.38
2023-03-22T20:15:04.126Z,13.32
2023-03-22T20:17:31.080Z,10.70
2023-03-22T20:20:04.715Z,12.75
2023-03-22T20:22:31.381Z,13.95
2023-03-22T20:25:03.479Z,12.88
2023-03-22T20:27:39.590Z,11.18
2023-03-22T20:30:07.039Z,12.82
2023-03-22T20:32:36.099Z,9.23
2023-03-22T20:35:02.666Z,11.98
2023-03-22T20:37:29.571Z,10.27
2023-03-22T20:39:56.242Z,10.05
2023-03-22T20:42:22.820Z,8.07
2023-03-22T20:44:49.541Z,8.00
2023-03-22T20:47:16.056Z,9.52
2023-03-22T20:49:52.101Z,7.47
2023-03-22T20:52:18.715Z,8.73
2023-03-22T20:54:45.178Z,8.05
2023-03-22T20:57:11.694Z,7.85
2023-03-22T21:02:26.428Z,10.00
2023-03-22T21:04:53.042Z,8.63
2023-03-22T21:07:21.326Z,9.98
2023-03-22T21:09:48.165Z,8.85
2023-03-22T21:12:18.288Z,13.32
2023-03-22T21:14:44.970Z,13.50
2023-03-22T21:17:11.636Z,14.52
2023-03-22T21:19:40.417Z,11.90
2023-03-22T21:22:08.944Z,9.30
2023-03-22T21:24:35.548Z,11.30
2023-03-22T21:27:05.289Z,10.15
2023-03-22T21:29:53.829Z,9.82
2023-03-22T21:35:36.062Z,10.13
2023-03-22T21:38:10.417Z,10.65
2023-03-22T21:40:37.539Z,8.10
2023-03-22T21:46:05.124Z,8.43
2023-03-22T21:48:33.681Z,10.38
2023-03-22T21:51:03.168Z,9.30
2023-03-22T21:53:35.581Z,7.18
2023-03-22T21:56:02.563Z,6.75
2023-03-22T21:58:38.554Z,8.88
2023-03-22T22:01:09.059Z,7.78
2023-03-22T22:03:35.571Z,8.52
2023-03-22T22:06:05.907Z,9.70
2023-03-22T22:08:34.882Z,10.02
2023-03-22T22:11:06.303Z,8.13
2023-03-22T22:13:37.607Z,6.13
2023-03-22T22:18:38.326Z,6.50
2023-03-22T22:21:08.331Z,8.15
2023-03-22T22:23:39.779Z,6.63
2023-03-22T22:26:07.980Z,5.43
2023-03-22T22:31:17.154Z,3.38
2023-03-22T22:33:44.412Z,4.47
2023-03-22T22:36:11.098Z,5.00
2023-03-22T22:38:39.325Z,4.30
2023-03-22T22:41:06.422Z,4.68
2023-03-22T22:43:33.686Z,5.18
2023-03-22T22:46:13.089Z,3.75
2023-03-22T22:48:43.967Z,4.63
2023-03-22T22:51:12.967Z,5.28
2023-03-22T22:56:24.310Z,4.03
2023-03-22T22:58:53.288Z,4.20
2023-03-22T23:01:20.028Z,3.30
2023-03-22T23:03:47.095Z,3.97
2023-03-22T23:06:16.328Z,4.95
2023-03-22T23:08:43.368Z,5.72
2023-03-22T23:11:31.493Z,6.57
2023-03-22T23:13:58.482Z,6.25
2023-03-22T23:16:25.973Z,9.40
2023-03-22T23:18:55.647Z,7.88
2023-03-22T23:23:57.393Z,9.35
2023-03-22T23:26:24.137Z,7.15
2023-03-22T23:29:02.037Z,7.75
2023-03-22T23:31:28.967Z,5.82
2023-03-22T23:33:57.447Z,6.93
2023-03-22T23:36:24.861Z,10.13
2023-03-22T23:38:54.374Z,5.80
2023-03-22T23:41:23.746Z,6.03
2023-03-22T23:43:50.703Z,8.13
2023-03-22T23:48:57.996Z,7.97
2023-03-22T23:51:35.379Z,6.53
2023-03-22T23:54:09.608Z,11.23
2023-03-22T23:56:37.286Z,8.45
2023-03-22T23:59:05.429Z,7.07
